createdAt,value
2018-07-21T00:02:09.388Z,99442.44
2018-07-21T00:04:40.507Z,99448.95
2018-07-21T00:07:11.578Z,99450.44
2018-07-21T00:09:42.490Z,99460.80
2018-07-21T00:12:13.486Z,99460.66
2018-07-21T00:14:44.621Z,99466.08
2018-07-21T00:17:15.483Z,99465.45
2018-07-21T00:19:46.485Z,99460.05
2018-07-21T00:22:17.527Z,99467.87
2018-07-21T00:24:48.508Z,99465.84
2018-07-21T00:27:19.488Z,99460.31
2018-07-21T00:29:50.533Z,99470.17
2018-07-21T00:32:21.550Z,99462.75
2018-07-21T00:34:52.491Z,99469.08
2018-07-21T00:37:23.481Z,99469.69
2018-07-21T00:39:54.488Z,99466.86
2018-07-21T00:42:25.589Z,99467.28
2018-07-21T00:44:56.561Z,99463.91
2018-07-21T00:47:27.492Z,99460.84
2018-07-21T00:49:58.541Z,99459.00
2018-07-21T00:52:29.493Z,99457.73
2018-07-21T00:55:00.485Z,99456.79
2018-07-21T00:57:31.501Z,99460.81
2018-07-21T01:00:02.524Z,99458.21
2018-07-21T01:02:33.506Z,99460.91
2018-07-21T01:05:04.504Z,99464.97
2018-07-21T01:07:35.489Z,99476.75
2018-07-21T01:10:07.730Z,99469.63
2018-07-21T01:12:38.904Z,99465.90
2018-07-21T01:15:10.529Z,99467.98
2018-07-21T01:17:41.505Z,99456.59
2018-07-21T01:20:12.576Z,99453.76
2018-07-21T01:22:43.482Z,99456.90
2018-07-21T01:25:14.492Z,99459.42
2018-07-21T01:27:45.485Z,99455.39
2018-07-21T01:30:16.511Z,99459.48
2018-07-21T01:32:47.479Z,99466.42
2018-07-21T01:35:18.558Z,99460.16
2018-07-21T01:37:49.473Z,99453.20
2018-07-21T01:40:20.515Z,99451.73
2018-07-21T01:42:51.509Z,99445.53
2018-07-21T01:45:22.498Z,99451.13
2018-07-21T01:47:53.538Z,99452.47
2018-07-21T01:50:24.513Z,99459.61
2018-07-21T01:52:55.467Z,99463.86
2018-07-21T01:55:26.529Z,99460.80
2018-07-21T01:57:57.509Z,99457.23
2018-07-21T02:00:28.485Z,99452.52
2018-07-21T02:02:59.506Z,99453.03
2018-07-21T02:05:30.505Z,99446.56
2018-07-21T02:08:01.555Z,99451.36
2018-07-21T02:10:32.493Z,99452.59
2018-07-21T02:13:03.506Z,99457.58
2018-07-21T02:15:34.489Z,99460.28
2018-07-21T02:18:05.505Z,99463.78
2018-07-21T02:20:36.480Z,99458.78
2018-07-21T02:23:07.476Z,99455.77
2018-07-21T02:25:38.529Z,99451.12
2018-07-21T02:28:09.481Z,99457.31
2018-07-21T02:30:40.497Z,99452.78
2018-07-21T02:33:11.508Z,99450.98
2018-07-21T02:35:42.501Z,99457.07
2018-07-21T02:38:13.509Z,99450.11
2018-07-21T02:40:44.501Z,99449.07
2018-07-21T02:43:15.500Z,99453.47
2018-07-21T02:45:46.593Z,99452.59
2018-07-21T02:48:17.507Z,99456.45
2018-07-21T02:50:48.642Z,99452.28
2018-07-21T02:53:19.546Z,99449.70
2018-07-21T02:55:50.516Z,99448.97
2018-07-21T02:58:21.494Z,99445.26
2018-07-21T03:00:52.489Z,99446.73
2018-07-21T03:03:23.515Z,99437.31
2018-07-21T03:05:54.525Z,99437.58
2018-07-21T03:08:25.493Z,99433.12
2018-07-21T03:10:56.506Z,99436.23
2018-07-21T03:13:27.489Z,99435.08
2018-07-21T03:15:58.550Z,99435.88
2018-07-21T03:18:29.496Z,99442.36
2018-07-21T03:21:00.494Z,99448.58
2018-07-21T03:23:31.497Z,99452.33
2018-07-21T03:26:03.016Z,99452.23
2018-07-21T03:28:34.216Z,99439.30
2018-07-21T03:31:05.376Z,99457.04
2018-07-21T03:33:36.389Z,99455.40
2018-07-21T03:36:07.463Z,99457.03
2018-07-21T03:38:38.522Z,99471.84
2018-07-21T03:41:09.485Z,99476.34
2018-07-21T03:43:40.501Z,99479.25
2018-07-21T03:46:11.512Z,99467.23
2018-07-21T03:48:42.489Z,99478.41
2018-07-21T03:51:13.526Z,99478.05
2018-07-21T03:53:44.473Z,99472.11
2018-07-21T03:56:15.509Z,99476.69
2018-07-21T03:58:46.485Z,99475.17
2018-07-21T04:01:17.720Z,99469.70
2018-07-21T04:03:48.558Z,99471.81
2018-07-21T04:09:07.475Z,99462.95
2018-07-21T04:11:38.501Z,99461.19
2018-07-21T04:14:10.426Z,99463.90
2018-07-21T04:16:41.498Z,99468.03
2018-07-21T04:19:12.477Z,99466.23
2018-07-21T04:21:43.476Z,99470.72
2018-07-21T04:24:14.549Z,99465.80
2018-07-21T04:26:45.519Z,99469.71
2018-07-21T04:30:05.361Z,99473.53
2018-07-21T04:32:36.361Z,99477.91
2018-07-21T04:35:07.453Z,99474.70
2018-07-21T04:37:38.498Z,99473.41
2018-07-21T04:40:09.484Z,99473.20
2018-07-21T04:42:40.501Z,99469.71
2018-07-21T04:45:11.493Z,99462.19
2018-07-21T04:47:42.529Z,99462.73
2018-07-21T04:50:13.489Z,99466.37
2018-07-21T04:52:44.512Z,99463.03
2018-07-21T04:55:15.517Z,99463.30
2018-07-21T04:57:46.497Z,99459.41
2018-07-21T05:00:17.489Z,99467.63
2018-07-21T05:02:48.505Z,99465.22
2018-07-21T05:05:19.489Z,99464.47
2018-07-21T05:07:50.517Z,99468.64
2018-07-21T05:10:21.476Z,99459.75
2018-07-21T05:12:52.510Z,99472.69
2018-07-21T05:15:23.504Z,99473.92
2018-07-21T05:17:54.522Z,99467.69
2018-07-21T05:20:25.509Z,99473.31
2018-07-21T05:22:56.509Z,99470.94
2018-07-21T05:25:27.504Z,99478.26
2018-07-21T05:27:58.505Z,99476.63
2018-07-21T05:30:29.621Z,99486.04
2018-07-21T05:33:00.499Z,99488.61
2018-07-21T05:35:31.492Z,99499.53
2018-07-21T05:38:02.517Z,99506.70
2018-07-21T05:40:33.516Z,99507.78
2018-07-21T05:43:04.498Z,99515.07
2018-07-21T05:45:35.574Z,99512.94
2018-07-21T05:48:06.627Z,99512.22
2018-07-21T05:50:37.548Z,99516.94
2018-07-21T05:53:08.550Z,99520.36
2018-07-21T05:55:39.502Z,99513.94
2018-07-21T05:58:10.513Z,99514.90
2018-07-21T06:00:41.529Z,99511.63
2018-07-21T06:03:12.500Z,99514.23
2018-07-21T06:05:43.522Z,99521.87
2018-07-21T06:08:14.573Z,99528.13
2018-07-21T06:10:45.611Z,99525.09
2018-07-21T06:13:16.476Z,99531.59
2018-07-21T06:15:47.488Z,99538.19
2018-07-21T06:18:18.513Z,99540.87
2018-07-21T06:20:49.478Z,99538.60
2018-07-21T06:23:20.566Z,99535.92
2018-07-21T06:25:51.520Z,99544.09
2018-07-21T06:28:22.503Z,99559.41
2018-07-21T06:30:53.535Z,99561.20
2018-07-21T06:33:24.644Z,99564.38
2018-07-21T06:35:55.745Z,99557.59
2018-07-21T06:38:26.601Z,99554.69
2018-07-21T06:40:57.513Z,99562.95
2018-07-21T06:43:28.524Z,99564.39
2018-07-21T06:45:59.485Z,99563.67
2018-07-21T06:48:30.510Z,99573.33
2018-07-21T06:51:01.545Z,99571.88
2018-07-21T06:53:32.525Z,99566.19
2018-07-21T06:56:03.507Z,99563.24
2018-07-21T06:58:34.501Z,99566.87
2018-07-21T07:01:05.518Z,99568.48
2018-07-21T07:03:36.531Z,99562.30
2018-07-21T07:06:07.509Z,99564.38
2018-07-21T07:08:38.508Z,99563.83
2018-07-21T07:11:09.480Z,99562.19
2018-07-21T07:13:40.530Z,99564.38
2018-07-21T07:16:11.477Z,99563.67
2018-07-21T07:18:42.511Z,99562.55
2018-07-21T07:21:13.505Z,99563.45
2018-07-21T07:23:44.481Z,99567.91
2018-07-21T07:26:15.498Z,99569.31
2018-07-21T07:28:46.529Z,99569.92
2018-07-21T07:31:17.521Z,99566.91
2018-07-21T07:33:48.635Z,99569.83
2018-07-21T07:36:19.569Z,99564.95
2018-07-21T07:38:50.482Z,99567.87
2018-07-21T07:41:21.497Z,99563.74
2018-07-21T07:43:52.541Z,99562.67
2018-07-21T07:46:23.531Z,99564.94
2018-07-21T07:48:55.219Z,99574.90
2018-07-21T07:51:26.392Z,99570.88
2018-07-21T07:53:57.512Z,99571.44
2018-07-21T07:56:28.514Z,99574.02
2018-07-21T07:59:00.030Z,99577.47
2018-07-21T08:01:31.488Z,99572.95
2018-07-21T08:04:02.517Z,99572.23
2018-07-21T08:06:33.481Z,99566.95
2018-07-21T08:09:06.487Z,99576.24
2018-07-21T08:11:37.470Z,99576.49
2018-07-21T08:14:08.589Z,99584.76
2018-07-21T08:16:39.509Z,99579.99
2018-07-21T08:19:10.542Z,99586.03
2018-07-21T08:21:41.470Z,99589.53
2018-07-21T08:24:12.582Z,99591.51
2018-07-21T08:26:43.781Z,99592.52
2018-07-21T08:29:14.609Z,99590.52
2018-07-21T08:31:45.488Z,99590.30
2018-07-21T08:34:16.693Z,99597.98
2018-07-21T08:36:47.574Z,99589.00
2018-07-21T08:39:18.754Z,99595.52
2018-07-21T08:41:49.626Z,99599.62
2018-07-21T08:44:21.409Z,99599.80
2018-07-21T08:46:52.494Z,99596.93
2018-07-21T08:49:24.521Z,99594.95
2018-07-21T08:51:55.493Z,99598.25
2018-07-21T08:54:26.797Z,99597.94
2018-07-21T08:56:57.799Z,99610.25
2018-07-21T08:59:28.617Z,99607.03
2018-07-21T09:02:00.518Z,99599.63
2018-07-21T09:04:31.514Z,99598.03
2018-07-21T09:07:02.494Z,99603.52
2018-07-21T09:09:33.830Z,99598.70
2018-07-21T09:12:04.287Z,99606.56
2018-07-21T09:14:35.473Z,99610.11
2018-07-21T09:17:06.746Z,99608.83
2018-07-21T09:19:38.770Z,99615.11
2018-07-21T09:22:09.608Z,99619.86
2018-07-21T09:24:40.495Z,99622.05
2018-07-21T09:27:11.487Z,99620.97
2018-07-21T09:29:42.562Z,99625.80
2018-07-21T09:32:14.018Z,99635.55
2018-07-21T09:34:45.726Z,99635.31
2018-07-21T09:37:17.281Z,99634.80
2018-07-21T09:39:48.628Z,99644.10
2018-07-21T09:42:19.515Z,99656.72
2018-07-21T09:44:50.493Z,99651.77
2018-07-21T09:47:21.489Z,99662.58
2018-07-21T09:49:52.493Z,99666.33
2018-07-21T09:52:23.490Z,99663.75
2018-07-21T09:54:54.485Z,99674.48
2018-07-21T09:57:25.574Z,99675.60
2018-07-21T09:59:56.565Z,99677.69
2018-07-21T10:02:27.489Z,99679.77
2018-07-21T10:04:58.782Z,99682.33
2018-07-21T10:07:30.005Z,99696.36
2018-07-21T10:10:01.566Z,99691.19
2018-07-21T10:12:32.541Z,99689.20
2018-07-21T10:15:03.555Z,99698.97
2018-07-21T10:17:34.589Z,99701.22
2018-07-21T10:20:05.697Z,99703.70
2018-07-21T10:22:36.645Z,99704.88
2018-07-21T10:25:12.553Z,99711.52
2018-07-21T10:27:48.714Z,99709.24
2018-07-21T10:30:20.420Z,99713.06
2018-07-21T10:32:51.533Z,99708.09
2018-07-21T10:35:22.509Z,99706.94
2018-07-21T10:37:53.710Z,99711.02
2018-07-21T10:40:24.632Z,99715.70
2018-07-21T10:42:55.929Z,99714.83
2018-07-21T10:45:27.415Z,99714.99
2018-07-21T10:47:58.563Z,99718.64
2018-07-21T10:50:29.653Z,99721.25
2018-07-21T10:53:00.491Z,99721.66
2018-07-21T10:55:31.501Z,99726.11
2018-07-21T10:58:02.497Z,99728.88
2018-07-21T11:00:34.013Z,99732.20
2018-07-21T11:03:05.392Z,99729.50
2018-07-21T11:05:36.594Z,99726.64
2018-07-21T11:08:07.566Z,99733.80
2018-07-21T11:13:24.697Z,99722.97
2018-07-21T11:15:55.578Z,99730.59
2018-07-21T11:18:26.497Z,99735.30
2018-07-21T11:20:58.514Z,99727.27
2018-07-21T11:23:29.472Z,99736.66
2018-07-21T11:26:00.529Z,99735.27
2018-07-21T11:28:32.373Z,99734.83
2018-07-21T11:31:03.663Z,99735.69
2018-07-21T11:33:34.589Z,99740.02
2018-07-21T11:36:05.892Z,99744.17
2018-07-21T11:38:36.555Z,99740.17
2018-07-21T11:41:07.527Z,99749.20
2018-07-21T11:43:38.501Z,99752.52
2018-07-21T11:46:09.486Z,99746.22
2018-07-21T11:48:40.485Z,99745.87
2018-07-21T11:51:11.646Z,99747.53
2018-07-21T11:53:42.800Z,99750.67
2018-07-21T11:56:14.469Z,99747.30
2018-07-21T11:58:45.533Z,99758.41
2018-07-21T12:01:16.505Z,99753.16
2018-07-21T12:03:47.585Z,99752.75
2018-07-21T12:06:18.610Z,99757.52
2018-07-21T12:08:49.496Z,99761.23
2018-07-21T12:11:20.489Z,99762.44
2018-07-21T12:13:51.490Z,99767.59
2018-07-21T12:16:22.643Z,99767.19
2018-07-21T12:18:53.606Z,99758.59
2018-07-21T12:21:24.708Z,99759.73
2018-07-21T12:23:55.848Z,99759.42
2018-07-21T12:26:26.336Z,99762.20
2018-07-21T12:28:57.398Z,99766.23
2018-07-21T12:31:28.742Z,99758.38
2018-07-21T12:33:59.570Z,99757.32
2018-07-21T12:36:30.513Z,99749.37
2018-07-21T12:39:01.493Z,99752.05
2018-07-21T12:41:32.533Z,99753.71
2018-07-21T12:44:03.766Z,99748.55
2018-07-21T12:46:34.590Z,99755.79
2018-07-21T12:49:05.541Z,99751.73
2018-07-21T12:51:36.512Z,99749.73
2018-07-21T12:54:07.524Z,99744.42
2018-07-21T12:56:38.733Z,99740.20
2018-07-21T12:59:09.794Z,99749.44
2018-07-21T13:01:40.647Z,99733.50
2018-07-21T13:04:11.685Z,99736.36
2018-07-21T13:06:43.594Z,99734.83
2018-07-21T13:09:15.234Z,99736.79
2018-07-21T13:11:46.474Z,99737.13
2018-07-21T13:14:17.501Z,99730.55
2018-07-21T13:16:48.501Z,99730.28
2018-07-21T13:19:19.516Z,99728.61
2018-07-21T13:21:50.790Z,99721.66
2018-07-21T13:24:21.902Z,99726.06
2018-07-21T13:26:53.024Z,99723.15
2018-07-21T13:29:25.259Z,99720.19
2018-07-21T13:31:56.379Z,99722.95
2018-07-21T13:34:27.473Z,99708.52
2018-07-21T13:36:59.529Z,99706.05
2018-07-21T13:39:30.798Z,99711.31
2018-07-21T13:42:01.916Z,99718.20
2018-07-21T13:44:32.917Z,99720.63
2018-07-21T13:47:03.781Z,99709.75
2018-07-21T13:49:34.593Z,99709.01
2018-07-21T13:52:05.562Z,99707.41
2018-07-21T13:54:37.388Z,99710.79
2018-07-21T13:57:08.818Z,99709.46
2018-07-21T13:59:39.881Z,99704.90
2018-07-21T14:02:11.191Z,99709.98
2018-07-21T14:04:42.457Z,99701.02
2018-07-21T14:07:14.037Z,99705.93
2018-07-21T14:09:45.495Z,99692.88
2018-07-21T14:12:16.504Z,99692.28
2018-07-21T14:14:47.579Z,99683.41
2018-07-21T14:17:18.613Z,99692.69
2018-07-21T14:19:49.494Z,99686.01
2018-07-21T14:22:20.597Z,99685.83
2018-07-21T14:24:51.854Z,99682.58
2018-07-21T14:27:23.670Z,99675.12
2018-07-21T14:29:54.691Z,99684.91
2018-07-21T14:32:25.516Z,99685.58
2018-07-21T14:34:56.541Z,99685.41
2018-07-21T14:37:27.590Z,99685.50
2018-07-21T14:39:58.558Z,99689.47
2018-07-21T14:42:30.027Z,99689.67
2018-07-21T14:45:01.605Z,99697.89
2018-07-21T14:47:32.679Z,99687.33
2018-07-21T14:50:04.327Z,99688.55
2018-07-21T14:52:35.533Z,99678.81
2018-07-21T14:55:06.649Z,99686.72
2018-07-21T14:57:37.605Z,99680.86
2018-07-21T15:00:08.618Z,99676.16
2018-07-21T15:02:39.578Z,99684.58
2018-07-21T15:05:10.508Z,99682.36
2018-07-21T15:07:41.522Z,99679.48
2018-07-21T15:10:12.513Z,99679.14
2018-07-21T15:12:43.509Z,99676.18
2018-07-21T15:15:14.506Z,99671.92
2018-07-21T15:17:45.529Z,99670.31
2018-07-21T15:20:16.503Z,99669.51
2018-07-21T15:22:47.539Z,99661.34
2018-07-21T15:25:18.490Z,99670.41
2018-07-21T15:27:49.530Z,99668.20
2018-07-21T15:30:20.513Z,99667.26
2018-07-21T15:32:51.507Z,99669.08
2018-07-21T15:35:22.531Z,99670.71
2018-07-21T15:37:53.522Z,99672.09
2018-07-21T15:40:24.561Z,99679.95
2018-07-21T15:42:55.573Z,99667.66
2018-07-21T15:45:26.506Z,99665.33
2018-07-21T15:47:57.527Z,99672.53
2018-07-21T15:50:28.482Z,99665.97
2018-07-21T15:52:59.496Z,99664.30
2018-07-21T15:55:30.538Z,99676.44
2018-07-21T15:58:01.653Z,99670.66
2018-07-21T16:00:32.497Z,99662.07
2018-07-21T16:03:03.484Z,99666.98
2018-07-21T16:05:34.493Z,99669.75
2018-07-21T16:08:05.524Z,99666.45
2018-07-21T16:10:36.513Z,99667.02
2018-07-21T16:13:07.682Z,99672.35
2018-07-21T16:15:38.549Z,99672.02
2018-07-21T16:18:09.528Z,99671.83
2018-07-21T16:20:40.698Z,99663.59
2018-07-21T16:23:11.554Z,99669.06
2018-07-21T16:25:42.521Z,99666.59
2018-07-21T16:28:13.533Z,99671.34
2018-07-21T16:30:44.489Z,99666.83
2018-07-21T16:33:15.517Z,99670.48
2018-07-21T16:35:46.489Z,99669.71
2018-07-21T16:38:17.545Z,99671.13
2018-07-21T16:40:48.561Z,99664.09
2018-07-21T16:43:19.509Z,99670.38
2018-07-21T16:45:50.530Z,99667.78
2018-07-21T16:48:21.560Z,99663.88
2018-07-21T16:50:52.511Z,99659.83
2018-07-21T16:53:23.557Z,99658.80
2018-07-21T16:55:54.522Z,99655.66
2018-07-21T16:58:25.605Z,99656.13
2018-07-21T17:00:56.550Z,99654.68
2018-07-21T17:03:27.521Z,99653.88
2018-07-21T17:05:58.501Z,99651.45
2018-07-21T17:08:29.526Z,99647.14
2018-07-21T17:11:00.542Z,99646.67
2018-07-21T17:13:31.495Z,99652.21
2018-07-21T17:16:02.535Z,99643.61
2018-07-21T17:18:34.288Z,99643.08
2018-07-21T17:21:05.405Z,99642.02
2018-07-21T17:23:36.641Z,99642.33
2018-07-21T17:26:07.516Z,99640.73
2018-07-21T17:29:14.548Z,99636.23
2018-07-21T17:31:45.518Z,99637.96
2018-07-21T17:34:16.517Z,99633.16
2018-07-21T17:36:47.490Z,99636.59
2018-07-21T17:39:18.562Z,99634.51
2018-07-21T17:41:49.528Z,99626.83
2018-07-21T17:44:20.530Z,99635.11
2018-07-21T17:46:51.511Z,99638.78
2018-07-21T17:49:22.510Z,99635.71
2018-07-21T17:51:53.516Z,99637.48
2018-07-21T17:54:24.500Z,99638.71
2018-07-21T17:56:55.529Z,99640.05
2018-07-21T17:59:26.571Z,99635.54
2018-07-21T18:01:58.029Z,99635.54
2018-07-21T18:04:29.339Z,99641.02
2018-07-21T18:07:00.366Z,99634.42
2018-07-21T18:09:31.424Z,99636.00
2018-07-21T18:12:02.574Z,99637.34
2018-07-21T18:14:33.508Z,99641.02
2018-07-21T18:17:05.370Z,99642.66
2018-07-21T18:19:36.541Z,99649.77
2018-07-21T18:22:07.542Z,99648.80
2018-07-21T18:24:38.541Z,99650.37
2018-07-21T18:27:09.535Z,99646.69
2018-07-21T18:29:40.513Z,99649.20
2018-07-21T18:32:11.489Z,99656.90
2018-07-21T18:34:42.514Z,99658.45
2018-07-21T18:37:13.509Z,99663.71
2018-07-21T18:39:44.592Z,99667.89
2018-07-21T18:42:15.498Z,99665.44
2018-07-21T18:44:46.500Z,99669.23
2018-07-21T18:47:17.527Z,99665.94
2018-07-21T18:49:48.725Z,99661.97
2018-07-21T18:52:19.585Z,99664.42
2018-07-21T18:54:50.537Z,99666.98
2018-07-21T18:57:22.019Z,99665.19
2018-07-21T18:59:53.561Z,99661.45
2018-07-21T19:02:25.020Z,99672.78
2018-07-21T19:04:56.406Z,99663.45
2018-07-21T19:07:27.524Z,99667.48
2018-07-21T19:09:59.033Z,99666.00
2018-07-21T19:12:35.403Z,99669.73
2018-07-21T19:15:06.761Z,99676.77
2018-07-21T19:17:38.193Z,99677.05
2018-07-21T19:21:14.818Z,99678.17
2018-07-21T19:23:46.420Z,99681.23
2018-07-21T19:29:14.577Z,99684.62
2018-07-21T19:31:50.709Z,99685.11
2018-07-21T19:34:21.534Z,99682.03
2018-07-21T19:36:52.503Z,99687.94
2018-07-21T19:39:23.491Z,99692.75
2018-07-21T19:41:59.602Z,99694.13
2018-07-21T19:44:30.569Z,99693.13
2018-07-21T19:47:01.604Z,99694.48
2018-07-21T19:49:32.661Z,99695.64
2018-07-21T19:52:03.924Z,99690.19
2018-07-21T19:54:34.761Z,99689.09
2018-07-21T19:57:05.588Z,99687.09
2018-07-21T19:59:36.550Z,99690.50
2018-07-21T20:02:07.534Z,99694.38
2018-07-21T20:04:38.552Z,99698.05
2018-07-21T20:07:09.530Z,99700.34
2018-07-21T20:09:40.490Z,99707.86
2018-07-21T20:12:11.522Z,99699.77
2018-07-21T20:14:42.479Z,99709.62
2018-07-21T20:17:13.661Z,99714.84
2018-07-21T20:19:44.514Z,99717.78
2018-07-21T20:22:15.498Z,99715.32
2018-07-21T20:24:46.503Z,99717.97
2018-07-21T20:27:17.542Z,99716.23
2018-07-21T20:29:48.518Z,99719.36
2018-07-21T20:32:19.509Z,99719.11
2018-07-21T20:34:50.488Z,99719.80
2018-07-21T20:37:21.561Z,99723.50
2018-07-21T20:39:52.485Z,99726.96
2018-07-21T20:42:23.512Z,99727.40
2018-07-21T20:44:54.489Z,99731.84
2018-07-21T20:47:25.493Z,99720.16
2018-07-21T20:49:56.505Z,99727.13
2018-07-21T20:52:27.500Z,99726.85
2018-07-21T20:54:58.522Z,99729.80
2018-07-21T20:57:29.493Z,99726.37
2018-07-21T21:00:00.626Z,99728.77
2018-07-21T21:02:32.517Z,99737.38
2018-07-21T21:05:03.549Z,99735.09
2018-07-21T21:07:34.513Z,99737.38
2018-07-21T21:10:05.557Z,99736.81
2018-07-21T21:12:36.582Z,99743.89
2018-07-21T21:15:08.320Z,99740.17
2018-07-21T21:17:39.583Z,99742.34
2018-07-21T21:20:10.518Z,99746.56
2018-07-21T21:22:41.596Z,99743.47
2018-07-21T21:25:12.513Z,99748.02
2018-07-21T21:27:43.538Z,99752.69
2018-07-21T21:30:14.474Z,99754.03
2018-07-21T21:32:45.503Z,99752.05
2018-07-21T21:35:16.514Z,99751.27
2018-07-21T21:37:47.582Z,99754.44
2018-07-21T21:40:18.499Z,99759.81
2018-07-21T21:42:49.496Z,99754.65
2018-07-21T21:45:20.492Z,99750.09
2018-07-21T21:47:51.497Z,99752.48
2018-07-21T21:50:22.497Z,99759.83
2018-07-21T21:52:53.518Z,99757.96
2018-07-21T21:55:24.501Z,99754.45
2018-07-21T21:57:55.512Z,99763.13
2018-07-21T22:00:27.545Z,99762.94
2018-07-21T22:02:58.486Z,99770.55
2018-07-21T22:05:29.485Z,99770.55
2018-07-21T22:08:00.490Z,99771.19
2018-07-21T22:10:31.499Z,99777.06
2018-07-21T22:13:02.506Z,99782.53
2018-07-21T22:15:33.492Z,99782.73
2018-07-21T22:18:04.482Z,99775.52
2018-07-21T22:20:35.504Z,99777.36
2018-07-21T22:23:06.488Z,99779.56
2018-07-21T22:25:38.258Z,99777.20
2018-07-21T22:28:09.470Z,99776.04
2018-07-21T22:30:40.509Z,99773.94
2018-07-21T22:33:11.484Z,99775.98
2018-07-21T22:35:42.521Z,99783.12
2018-07-21T22:38:13.538Z,99787.02
2018-07-21T22:40:44.497Z,99780.59
2018-07-21T22:43:15.566Z,99789.48
2018-07-21T22:45:46.502Z,99782.72
2018-07-21T22:48:17.515Z,99795.00
2018-07-21T22:50:48.487Z,99794.31
2018-07-21T22:53:19.485Z,99799.03
2018-07-21T22:55:50.485Z,99798.77
2018-07-21T22:58:21.485Z,99799.16
2018-07-21T23:00:52.565Z,99798.03
2018-07-21T23:03:23.513Z,99795.23
2018-07-21T23:05:54.493Z,99794.52
2018-07-21T23:08:25.534Z,99794.31
2018-07-21T23:10:56.493Z,99790.81
2018-07-21T23:13:27.557Z,99786.93
2018-07-21T23:15:58.493Z,99785.55
2018-07-21T23:18:29.512Z,99783.05
2018-07-21T23:21:00.514Z,99779.91
2018-07-21T23:23:31.493Z,99775.72
2018-07-21T23:26:02.515Z,99771.90
2018-07-21T23:28:33.525Z,99771.89
2018-07-21T23:31:04.506Z,99774.42
2018-07-21T23:33:35.562Z,99765.47
2018-07-21T23:36:07.560Z,99772.17
2018-07-21T23:38:38.453Z,99768.78
2018-07-21T23:41:09.561Z,99769.92
2018-07-21T23:43:40.521Z,99777.56
2018-07-21T23:46:11.477Z,99774.95
2018-07-21T23:48:42.469Z,99769.51
2018-07-21T23:51:13.473Z,99768.00
2018-07-21T23:53:44.435Z,99770.42
2018-07-21T23:56:15.448Z,99767.39
2018-07-21T23:58:46.460Z,99773.66
